createdAt,value
2019-06-08T00:00:08.561Z,14.03
2019-06-08T00:02:43.412Z,14.93
2019-06-08T00:05:18.848Z,15.53
2019-06-08T00:07:53.826Z,12.40
2019-06-08T00:10:28.708Z,17.23
2019-06-08T00:13:03.538Z,13.08
2019-06-08T00:15:38.372Z,12.28
2019-06-08T00:18:13.243Z,11.22
2019-06-08T00:20:48.128Z,12.70
2019-06-08T00:23:23.918Z,13.20
2019-06-08T00:25:58.820Z,12.58
2019-06-08T00:28:33.695Z,11.35
2019-06-08T00:31:08.485Z,10.30
2019-06-08T00:33:43.274Z,14.87
2019-06-08T00:36:18.797Z,11.95
2019-06-08T00:38:53.392Z,13.50
2019-06-08T00:41:28.209Z,12.20
2019-06-08T00:44:02.965Z,11.40
2019-06-08T00:46:38.508Z,11.80
2019-06-08T00:49:13.369Z,12.28
2019-06-08T00:51:48.278Z,13.62
2019-06-08T00:54:23.487Z,16.40
2019-06-08T00:56:58.506Z,14.35
2019-06-08T00:59:33.287Z,12.10
2019-06-08T01:02:08.080Z,15.72
2019-06-08T01:04:42.873Z,19.45
2019-06-08T01:07:17.985Z,14.65
2019-06-08T01:13:27.452Z,14.03
2019-06-08T01:29:33.887Z,14.87
2019-06-08T01:32:14.060Z,15.95
2019-06-08T01:38:38.171Z,12.68
2019-06-08T01:41:23.381Z,12.55
2019-06-08T01:43:59.168Z,13.75
2019-06-08T01:49:55.456Z,14.03
2019-06-08T01:52:42.658Z,13.03
2019-06-08T01:56:22.913Z,16.48
2019-06-08T01:58:56.518Z,17.87
2019-06-08T02:39:24.034Z,15.35
2019-06-08T03:28:05.685Z,24.10
2019-06-08T03:30:55.201Z,28.10
2019-06-08T03:33:34.595Z,32.23
2019-06-08T03:36:08.378Z,20.72
2019-06-08T03:38:44.707Z,21.60
2019-06-08T03:41:19.814Z,28.92
2019-06-08T03:43:54.685Z,23.60
2019-06-08T03:46:29.504Z,20.92
2019-06-08T03:49:07.712Z,21.70
2019-06-08T03:51:49.019Z,21.87
2019-06-08T03:54:23.522Z,18.82
2019-06-08T03:57:05.430Z,20.23
2019-06-08T03:59:43.205Z,16.97
2019-06-08T04:02:17.639Z,12.45
2019-06-08T04:04:52.478Z,18.92
2019-06-08T04:07:30.192Z,12.50
2019-06-08T04:10:28.735Z,12.80
2019-06-08T04:13:11.128Z,14.20
2019-06-08T04:15:54.443Z,12.28
2019-06-08T04:18:38.051Z,17.10
2019-06-08T04:21:14.731Z,16.45
2019-06-08T04:27:35.206Z,15.20
2019-06-08T04:40:27.198Z,15.53
2019-06-08T04:43:12.520Z,13.30
2019-06-08T04:50:20.928Z,11.57
2019-06-08T04:53:03.754Z,11.05
2019-06-08T04:55:38.871Z,12.75
2019-06-08T04:58:14.236Z,12.45
2019-06-08T05:00:50.777Z,15.25
2019-06-08T05:03:26.059Z,11.85
2019-06-08T05:06:00.876Z,14.50
2019-06-08T05:08:35.687Z,17.90
2019-06-08T05:11:10.516Z,11.70
2019-06-08T05:13:47.618Z,14.18
2019-06-08T05:16:22.575Z,14.15
2019-06-08T05:18:57.523Z,16.62
2019-06-08T05:21:32.336Z,12.23
2019-06-08T05:24:07.384Z,14.15
2019-06-08T05:26:43.560Z,20.85
2019-06-08T05:29:20.541Z,13.28
2019-06-08T05:31:55.492Z,13.05
2019-06-08T05:34:34.600Z,13.00
2019-06-08T05:37:19.178Z,17.00
2019-06-08T05:39:52.049Z,17.27
2019-06-08T05:42:27.123Z,13.65
2019-06-08T05:45:17.572Z,15.03
2019-06-08T05:47:52.616Z,12.33
2019-06-08T05:50:27.372Z,15.10
2019-06-08T05:53:03.246Z,13.58
2019-06-08T05:55:38.154Z,12.95
2019-06-08T05:58:13.236Z,13.90
2019-06-08T06:00:50.667Z,10.48
2019-06-08T06:03:27.896Z,8.83
2019-06-08T06:06:02.638Z,15.00
2019-06-08T06:08:37.531Z,9.23
2019-06-08T06:11:12.375Z,11.97
2019-06-08T06:13:49.775Z,12.78
2019-06-08T06:16:23.566Z,9.40
2019-06-08T06:18:58.364Z,12.40
2019-06-08T06:21:34.567Z,8.48
2019-06-08T06:24:09.454Z,10.82
2019-06-08T06:26:45.978Z,9.48
2019-06-08T06:29:23.299Z,14.25
2019-06-08T06:31:58.010Z,10.72
2019-06-08T06:34:33.528Z,10.08
2019-06-08T06:37:08.366Z,11.78
2019-06-08T06:39:48.162Z,10.72
2019-06-08T06:42:50.065Z,12.77
2019-06-08T06:53:00.301Z,13.90
2019-06-08T06:55:36.602Z,11.00
2019-06-08T06:59:05.676Z,15.23
2019-06-08T07:01:45.490Z,14.30
2019-06-08T07:04:22.752Z,10.77
2019-06-08T07:07:05.091Z,11.93
2019-06-08T07:09:39.983Z,10.00
2019-06-08T07:12:14.876Z,9.93
2019-06-08T07:14:51.260Z,12.05
2019-06-08T07:17:27.947Z,9.58
2019-06-08T07:20:05.515Z,9.75
2019-06-08T07:22:41.983Z,9.65
2019-06-08T07:25:18.245Z,10.28
2019-06-08T07:27:54.952Z,9.83
2019-06-08T07:30:34.709Z,7.42
2019-06-08T07:33:09.493Z,13.10
2019-06-08T07:35:44.571Z,7.17
2019-06-08T07:38:26.551Z,7.62
2019-06-08T07:41:01.824Z,7.58
2019-06-08T07:43:36.806Z,9.20
2019-06-08T07:46:11.763Z,9.10
2019-06-08T07:48:48.019Z,6.92
2019-06-08T07:51:23.915Z,8.98
2019-06-08T07:54:00.803Z,6.70
2019-06-08T07:56:35.570Z,7.50
2019-06-08T07:59:10.241Z,5.30
2019-06-08T08:01:45.061Z,6.42
2019-06-08T08:04:19.822Z,7.80
2019-06-08T08:06:54.738Z,6.95
2019-06-08T08:09:29.779Z,7.90
2019-06-08T08:12:07.372Z,6.70
2019-06-08T08:14:44.639Z,12.68
2019-06-08T08:17:23.613Z,11.55
2019-06-08T08:20:03.872Z,6.62
2019-06-08T08:22:38.775Z,10.45
2019-06-08T08:25:14.454Z,8.03
2019-06-08T08:27:50.340Z,10.00
2019-06-08T08:30:28.278Z,9.90
2019-06-08T08:33:03.853Z,8.68
2019-06-08T08:36:01.868Z,10.35
2019-06-08T08:45:59.124Z,11.70
2019-06-08T17:39:02.401Z,12.95
2019-06-08T17:49:23.764Z,6.03
2019-06-08T17:51:59.900Z,11.08
2019-06-08T17:55:12.862Z,7.87
2019-06-08T17:59:19.544Z,8.03
2019-06-08T18:00:44.797Z,7.58
2019-06-08T18:03:28.565Z,8.50
2019-06-08T18:06:21.379Z,9.13
2019-06-08T18:14:43.263Z,9.15
2019-06-08T18:17:20.361Z,11.33
2019-06-08T18:19:57.959Z,14.98
2019-06-08T18:22:32.872Z,6.47
2019-06-08T18:25:08.841Z,9.73
2019-06-08T18:28:01.781Z,13.15
2019-06-08T18:30:23.278Z,8.70
2019-06-08T18:32:58.249Z,7.55
2019-06-08T18:43:52.408Z,8.60
2019-06-08T18:46:27.204Z,10.53
2019-06-08T18:49:01.900Z,20.40
2019-06-08T18:51:38.219Z,11.03
2019-06-08T18:54:15.159Z,13.38
2019-06-08T18:56:50.907Z,9.80
2019-06-08T18:59:28.579Z,9.60
2019-06-08T19:02:03.620Z,11.95
2019-06-08T19:04:40.279Z,15.70
2019-06-08T19:07:21.189Z,10.98
2019-06-08T19:09:58.163Z,10.25
2019-06-08T19:12:33.079Z,11.33
2019-06-08T19:15:11.350Z,8.28
2019-06-08T19:17:51.346Z,11.30
2019-06-08T19:20:20.803Z,8.83
2019-06-08T19:22:57.763Z,6.78
2019-06-08T19:25:32.082Z,14.10
2019-06-08T19:28:07.781Z,16.17
2019-06-08T19:30:45.511Z,5.97
2019-06-08T19:33:19.143Z,5.78
2019-06-08T19:35:54.173Z,5.37
2019-06-08T19:38:29.129Z,3.27
2019-06-08T19:41:04.015Z,4.12
2019-06-08T19:43:41.502Z,7.00
2019-06-08T19:46:15.009Z,4.25
2019-06-08T19:48:54.692Z,3.67
2019-06-08T19:51:27.852Z,3.70
2019-06-08T19:54:02.694Z,3.20
2019-06-08T19:56:39.013Z,3.15
2019-06-08T19:59:13.938Z,2.47
2019-06-08T20:01:54.427Z,3.75
2019-06-08T20:04:27.427Z,8.23
2019-06-08T20:07:01.478Z,2.17
2019-06-08T20:09:37.635Z,3.15
2019-06-08T20:12:12.545Z,2.33
2019-06-08T20:14:51.088Z,3.10
2019-06-08T20:17:28.383Z,6.50
2019-06-08T20:20:02.335Z,1.98
2019-06-08T20:22:37.823Z,2.12
2019-06-08T20:25:12.677Z,2.98
2019-06-08T20:27:49.762Z,3.70
2019-06-08T20:30:23.936Z,2.20
2019-06-08T20:32:58.714Z,4.05
2019-06-08T20:35:33.487Z,2.83
2019-06-08T20:38:08.443Z,3.40
2019-06-08T20:40:44.000Z,1.95
2019-06-08T20:43:18.910Z,3.98
2019-06-08T20:45:53.704Z,3.62
2019-06-08T20:48:28.424Z,4.60
2019-06-08T20:51:03.152Z,4.15
2019-06-08T20:53:38.781Z,10.18
2019-06-08T20:56:13.774Z,1.50
2019-06-08T20:58:50.958Z,5.47
2019-06-08T21:01:24.953Z,5.92
2019-06-08T21:03:59.774Z,4.05
2019-06-08T21:06:34.487Z,2.17
2019-06-08T21:09:09.272Z,5.95
2019-06-08T21:11:44.998Z,3.10
2019-06-08T21:14:20.206Z,1.82
2019-06-08T21:16:55.032Z,2.92
2019-06-08T21:19:29.879Z,5.72
2019-06-08T21:22:04.747Z,2.00
2019-06-08T21:24:39.631Z,4.62
2019-06-08T21:27:14.371Z,4.15
2019-06-08T21:29:56.200Z,2.67
2019-06-08T21:32:27.671Z,3.25
2019-06-08T21:35:03.384Z,2.33
2019-06-08T21:37:38.166Z,4.08
2019-06-08T21:40:12.989Z,2.35
2019-06-08T21:42:51.441Z,2.33
2019-06-08T21:45:24.310Z,2.70
2019-06-08T21:48:00.438Z,5.28
2019-06-08T21:50:37.147Z,2.22
2019-06-08T21:53:12.071Z,2.92
2019-06-08T21:55:47.932Z,5.33
2019-06-08T21:58:23.489Z,2.95
2019-06-08T22:01:00.918Z,2.98
2019-06-08T22:03:34.961Z,4.78
2019-06-08T22:06:09.680Z,1.92
2019-06-08T22:08:44.517Z,1.37
2019-06-08T22:11:20.957Z,2.70
2019-06-08T22:13:59.220Z,3.92
2019-06-08T22:16:32.118Z,3.50
2019-06-08T22:19:07.657Z,7.25
2019-06-08T22:21:42.580Z,3.70
2019-06-08T22:24:17.411Z,1.35
2019-06-08T22:26:52.669Z,2.87
2019-06-08T22:29:30.874Z,2.02
2019-06-08T22:32:07.646Z,3.27
2019-06-08T22:34:41.983Z,3.25
2019-06-08T22:37:16.669Z,6.58
2019-06-08T22:39:53.145Z,3.25
2019-06-08T22:42:29.183Z,1.85
2019-06-08T22:45:08.259Z,6.58
2019-06-08T22:47:42.626Z,4.42
2019-06-08T22:50:18.550Z,2.10
2019-06-08T22:52:53.976Z,2.42
2019-06-08T22:55:29.840Z,1.70
2019-06-08T22:58:04.700Z,2.70
2019-06-08T23:00:51.753Z,4.00
2019-06-08T23:03:18.229Z,4.22
2019-06-08T23:05:54.798Z,3.22
2019-06-08T23:08:29.197Z,3.77
2019-06-08T23:11:05.132Z,2.45
2019-06-08T23:13:40.396Z,1.60
2019-06-08T23:16:15.016Z,5.35
2019-06-08T23:18:49.823Z,2.20
2019-06-08T23:21:24.596Z,3.00
2019-06-08T23:24:01.002Z,1.95
2019-06-08T23:26:37.249Z,2.00
2019-06-08T23:29:12.160Z,4.28
2019-06-08T23:31:47.937Z,5.53
2019-06-08T23:34:23.389Z,2.72
2019-06-08T23:37:02.446Z,1.85
2019-06-08T23:39:34.707Z,3.92
2019-06-08T23:42:09.484Z,2.20
2019-06-08T23:44:44.371Z,2.72
2019-06-08T23:47:19.163Z,3.60
2019-06-08T23:49:53.938Z,5.20
2019-06-08T23:52:28.651Z,2.83
2019-06-08T23:55:06.171Z,2.67
2019-06-08T23:57:41.139Z,7.55
